Meridian, ID (83642)

3:55 PM MST on December 20, 2014 (GMT -0700)
Welker Subdivision | Change Station
CLOSE
Current Station
Personal Weather Station
Location: Meridian, ID
Elevation: 2605 ft
Nearby Weather Stations

Elev 2605 ft 43.61 °N, 116.40 °W | Updated 2 minutes ago

Rain
Rain
44.1 °F
Feels Like 42 °F
N
4.5
Wind Variable Wind from ENE
Gusts 5.9 mph

Today
High -- | Low -- °F
--% Chance of Precip.
Yesterday
High -- | Low -- °F
Precip. -- in
8:15 AM 5:11 PM
Waning Crescent, 2% visible
Pressure 29.94 in
Visibility 6.0 miles
Clouds Scattered Clouds 3400 ft
Windchill 42 °F
Dew Point 38 °F
Humidity 84%
Rainfall 0.20 in
Snow Depth Not available.
UV 1 out of 12
Pollen .10 out of 12
Air Quality Not available.
Flu Activity Not available.
METAR KMAN 202235Z AUTO 12009KT 6SM SCT034 07/07 A2994 RMK AO1 P0001

More Conditions Fewer Conditions

Pressure 29.94 in
Visibility 6.0 miles
Clouds Scattered Clouds 3400 ft
Windchill 42 °F
Dew Point 38 °F
Humidity 84%
Rainfall 0.20 in
Snow Depth Not available.
UV 1 out of 12
Pollen .10 out of 12
Air Quality Not available.
Flu Activity Not available.
METAR KMAN 202235Z AUTO 12009KT 6SM SCT034 07/07 A2994 RMK AO1 P0001

More Conditions Fewer Conditions

10-Day Weather Forecast

Almanac

Astronomy

Dec. 20, 2014 Rise Set
Actual Time
Civil Twilight
Nautical Twilight
Astronomical Twilight
Moon
Length of Visible Light
Length of Day
Tomorrow will be .
, % of the Moon is Illuminated

Today's Extremes

State Highs State Lows

Community

WunderPhotos

Upload Photos

1,779,293 photos uploaded!

WunderBlogs® & News

Nearby

Air Quality

  Air Quality AQ Index Pollutant
Not available.

Snow Depth

Station Depth Elevation

Earthquake Activity

City Distance Mag. Time & Date
Minimum magnitude displayed is 2.5.

Coastal Water Temperatures

Place Temperature

Nearby Weather Stations